Grande Portogallo — IBZW — position and weather

sailwx.info

Track history (hours):
 
Tides and Currents Weather Stations Pressure Air Temp Water Temp Dewpoint Dewpoint Depression Visibility Wind Speed Wind Dir Waves Ship Positions

Grande Portogallo

Last reported at 2017-Feb-22 01:33 UTC. Time now 2017-Feb-22 01:41 UTC.
Position N 44°11' E 008°30'.

Length 30 m; draft 6.9 m.

MMSI: 247065500.

Date/timePositionNaut miles runAvg speedWind from/ knotsBaromVisibWave heightAir tempDewpointWater temp
2017-Feb-22 01:33N 44°11' E 008°30'8 6.9
2017-Feb-22 00:28N 44°19' E 008°30'0 0.0
2017-Feb-21 23:28N 44°19' E 008°30'0 0.0
2017-Feb-21 22:28N 44°19' E 008°30'0 0.0
2017-Feb-21 21:31N 44°19' E 008°30'0 0.0
2017-Feb-21 20:31N 44°19' E 008°30'0 0.0
2017-Feb-21 19:31N 44°19' E 008°30'2 2.5
2017-Feb-21 18:33N 44°18' E 008°33'7 7.4
2017-Feb-21 17:33N 44°14' E 008°42'1111.3
2017-Feb-21 16:33N 44°07' E 008°55'1212.3
2017-Feb-21 15:33N 43°59' E 009°07'1615.8
2017-Feb-21 14:33N 43°50' E 009°25'1615.8
2017-Feb-21 13:33N 43°40' E 009°43'1515.4
2017-Feb-21 12:33N 43°31' E 009°59'1716.9
2017-Feb-21 11:34N 43°16' E 010°11'366 9.9
2017-Feb-19 22:32N 38°42' E 015°33'1616.4
2017-Feb-19 21:33N 38°27' E 015°40'1313.2
2017-Feb-19 20:34N 38°14' E 015°38'1211.6
2017-Feb-19 19:34N 38°03' E 015°35'1713.4
2017-Feb-19 18:18N 37°52' E 015°51'  
2017-Feb-14 09:19N 37°28' E 025°54'  
Track history (hours):
 
Tides and Currents Weather Stations Pressure Air Temp Water Temp Dewpoint Dewpoint Depression Visibility Wind Speed Wind Dir Waves Ship Positions

Grande Portogallo

Last reported at 2017-Feb-22 01:33 UTC. Time now 2017-Feb-22 01:41 UTC.
Position N 44°11' E 008°30'.

Length 30 m; draft 6.9 m.

MMSI: 247065500.

Date/timePositionNaut miles runAvg speedWind from/ knotsBaromVisibWave heightAir tempDewpointWater temp
2017-Feb-22 01:33N 44°11' E 008°30'8 6.9
2017-Feb-22 00:28N 44°19' E 008°30'0 0.0
2017-Feb-21 23:28N 44°19' E 008°30'0 0.0
2017-Feb-21 22:28N 44°19' E 008°30'0 0.0
2017-Feb-21 21:31N 44°19' E 008°30'0 0.0
2017-Feb-21 20:31N 44°19' E 008°30'0 0.0
2017-Feb-21 19:31N 44°19' E 008°30'2 2.5
2017-Feb-21 18:33N 44°18' E 008°33'7 7.4
2017-Feb-21 17:33N 44°14' E 008°42'1111.3
2017-Feb-21 16:33N 44°07' E 008°55'1212.3
2017-Feb-21 15:33N 43°59' E 009°07'1615.8
2017-Feb-21 14:33N 43°50' E 009°25'1615.8
2017-Feb-21 13:33N 43°40' E 009°43'1515.4
2017-Feb-21 12:33N 43°31' E 009°59'1716.9
2017-Feb-21 11:34N 43°16' E 010°11'366 9.9
2017-Feb-19 22:32N 38°42' E 015°33'1616.4
2017-Feb-19 21:33N 38°27' E 015°40'1313.2
2017-Feb-19 20:34N 38°14' E 015°38'1211.6
2017-Feb-19 19:34N 38°03' E 015°35'1713.4
2017-Feb-19 18:18N 37°52' E 015°51'  
2017-Feb-14 09:19N 37°28' E 025°54'  

Dump ship's entire track history